Gaborone, Botswana
Current Conditions -  °F | °C
As of 11:00 PM on Monday 24 Nov 2014 (Local Time) from FBSK Reporting Station
Clear Clear  
Wind Chill: 73°   Ceiling: Unl
Heat Index: 73°   Visibility: 6mi
Dew Point: 54°   Wind: 13mph
Humidity: 50%   Direction: 130°SE
Pressure: 30.06"   Gusts: NA
Location:  24.65°S, 25.91°E
Report Text: FBSK 242100Z 13011KT CAVOK 23/12 Q1018 NOSIG
Loading
Personal Weather Stations






























Interactive Weather Map New forecast layout! Learn more

10-Day Weather Forecast

Advertisements
Track Severe Weather on mobile